createdAt,value
2018-08-24T00:00:04.852Z,66.34
2018-08-24T00:02:32.876Z,66.53
2018-08-24T00:05:00.891Z,65.91
2018-08-24T00:07:29.051Z,66.41
2018-08-24T00:09:56.964Z,66.64
2018-08-24T00:12:25.052Z,65.97
2018-08-24T00:14:53.087Z,65.53
2018-08-24T00:17:26.678Z,65.62
2018-08-24T00:19:54.670Z,66.16
2018-08-24T00:22:22.672Z,66.26
2018-08-24T00:24:50.701Z,66.61
2018-08-24T00:27:18.792Z,67.76
2018-08-24T00:29:46.792Z,67.74
2018-08-24T00:32:14.789Z,67.85
2018-08-24T00:34:42.790Z,67.08
2018-08-24T00:37:10.845Z,67.48
2018-08-24T00:39:42.248Z,67.59
2018-08-24T00:42:10.378Z,67.36
2018-08-24T00:44:38.420Z,67.35
2018-08-24T00:47:06.464Z,67.40
2018-08-24T00:49:34.464Z,69.24
2018-08-24T00:52:02.469Z,68.20
2018-08-24T00:54:30.484Z,68.17
2018-08-24T00:56:58.484Z,68.41
2018-08-24T00:59:26.513Z,68.57
2018-08-24T01:01:54.513Z,68.39
2018-08-24T01:04:27.906Z,68.28
2018-08-24T01:06:55.906Z,69.03
2018-08-24T01:09:23.936Z,69.60
2018-08-24T01:11:57.385Z,68.32
2018-08-24T01:14:25.380Z,68.95
2018-08-24T01:16:58.800Z,68.77
2018-08-24T01:19:26.830Z,69.30
2018-08-24T01:21:54.834Z,69.56
2018-08-24T01:24:27.014Z,69.73
2018-08-24T01:27:00.544Z,68.96
2018-08-24T01:29:28.547Z,70.08
2018-08-24T01:31:56.537Z,68.35
2018-08-24T01:34:24.552Z,69.64
2018-08-24T01:36:52.648Z,69.16
2018-08-24T01:39:20.672Z,70.54
2018-08-24T01:41:49.001Z,70.66
2018-08-24T01:44:17.169Z,69.95
2018-08-24T01:46:45.240Z,69.61
2018-08-24T01:49:13.266Z,68.78
2018-08-24T01:51:48.070Z,69.47
2018-08-24T01:54:16.069Z,68.70
2018-08-24T01:56:44.128Z,69.85
2018-08-24T01:59:12.837Z,68.07
2018-08-24T02:01:40.735Z,69.69
2018-08-24T02:04:08.757Z,68.75
2018-08-24T02:06:36.756Z,70.08
2018-08-24T02:09:08.417Z,69.69
2018-08-24T02:11:36.460Z,69.22
2018-08-24T02:14:09.856Z,69.60
2018-08-24T02:16:38.796Z,70.13
2018-08-24T02:20:11.936Z,69.19
2018-08-24T02:22:39.927Z,70.49
2018-08-24T02:25:07.928Z,69.39
2018-08-24T02:27:35.949Z,70.13
2018-08-24T02:30:04.597Z,71.08
2018-08-24T02:32:32.593Z,70.72
2018-08-24T02:35:00.610Z,71.06
2018-08-24T02:37:29.601Z,71.37
2018-08-24T02:39:57.592Z,71.37
2018-08-24T02:42:25.610Z,71.39
2018-08-24T02:44:53.651Z,70.91
2018-08-24T02:47:21.613Z,69.96
2018-08-24T02:49:49.622Z,71.18
2018-08-24T02:52:17.616Z,70.17
2018-08-24T02:54:45.620Z,70.05
2018-08-24T02:57:13.613Z,70.43
2018-08-24T02:59:41.618Z,70.64
2018-08-24T03:02:09.613Z,70.72
2018-08-24T03:04:37.613Z,70.54
2018-08-24T03:07:05.621Z,70.17
2018-08-24T03:09:33.715Z,70.03
2018-08-24T03:12:01.729Z,70.44
2018-08-24T03:14:29.733Z,70.79
2018-08-24T03:17:03.268Z,71.70
2018-08-24T03:19:31.321Z,70.87
2018-08-24T03:21:59.352Z,71.89
2018-08-24T03:24:27.458Z,72.38
2018-08-24T03:26:55.445Z,72.06
2018-08-24T03:29:23.488Z,71.99
2018-08-24T03:31:51.474Z,71.95
2018-08-24T03:34:19.472Z,74.24
2018-08-24T03:36:47.475Z,73.25
2018-08-24T03:39:15.497Z,72.76
2018-08-24T03:41:43.492Z,72.69
2018-08-24T03:44:11.485Z,73.30
2018-08-24T03:46:39.493Z,73.30
2018-08-24T03:49:07.478Z,75.10
2018-08-24T03:51:35.463Z,75.24
2018-08-24T03:54:07.659Z,76.24
2018-08-24T03:56:35.653Z,76.36
2018-08-24T03:59:03.641Z,76.50
2018-08-24T04:01:31.636Z,75.93
2018-08-24T04:03:59.625Z,75.70
2018-08-24T04:06:27.638Z,75.75
2018-08-24T04:08:55.634Z,75.59
2018-08-24T04:11:23.697Z,75.84
2018-08-24T04:13:51.676Z,74.95
2018-08-24T04:16:19.885Z,73.63
2018-08-24T04:18:47.885Z,73.53
2018-08-24T04:21:15.886Z,73.18
2018-08-24T04:23:44.049Z,75.27
2018-08-24T04:26:12.187Z,72.80
2018-08-24T04:28:40.044Z,72.35
2018-08-24T04:31:08.053Z,71.54
2018-08-24T04:33:36.097Z,71.94
2018-08-24T04:36:04.109Z,71.69
2018-08-24T04:38:32.078Z,71.74
2018-08-24T04:41:00.103Z,72.47
2018-08-24T04:43:28.087Z,72.20
2018-08-24T04:45:56.089Z,72.06
2018-08-24T04:48:24.070Z,71.31
2018-08-24T04:50:52.060Z,72.87
2018-08-24T04:53:20.089Z,73.25
2018-08-24T04:55:48.172Z,73.82
2018-08-24T04:58:16.186Z,72.91
2018-08-24T05:00:44.149Z,72.96
2018-08-24T05:03:12.285Z,73.02
2018-08-24T05:05:40.398Z,73.23
2018-08-24T05:08:08.318Z,71.72
2018-08-24T05:10:36.350Z,69.70
2018-08-24T05:13:04.349Z,68.20
2018-08-24T05:15:32.744Z,66.83
2018-08-24T05:18:00.724Z,65.17
2018-08-24T05:20:28.717Z,65.81
2018-08-24T05:22:56.726Z,65.03
2018-08-24T05:25:24.697Z,65.53
2018-08-24T05:27:52.776Z,63.11
2018-08-24T05:30:20.769Z,62.50
2018-08-24T05:32:48.950Z,59.98
2018-08-24T05:35:17.930Z,57.84
2018-08-24T05:37:45.970Z,56.37
2018-08-24T05:40:13.977Z,55.90
2018-08-24T05:42:42.229Z,53.60
2018-08-24T05:45:10.301Z,51.71
2018-08-24T05:47:38.424Z,50.85
2018-08-24T05:50:06.968Z,51.31
2018-08-24T05:52:34.985Z,49.31
2018-08-24T05:55:03.025Z,47.05
2018-08-24T05:57:31.096Z,45.33
2018-08-24T05:59:59.117Z,45.57
2018-08-24T06:02:27.172Z,42.60
2018-08-24T06:04:55.405Z,43.34
2018-08-24T06:07:24.488Z,42.17
2018-08-24T06:09:52.477Z,44.46
2018-08-24T06:12:20.484Z,44.91
2018-08-24T06:14:48.506Z,47.31
2018-08-24T06:17:21.942Z,47.55
2018-08-24T06:19:50.005Z,47.61
2018-08-24T06:22:18.121Z,48.69
2018-08-24T06:24:46.100Z,48.70
2018-08-24T06:27:14.089Z,49.81
2018-08-24T06:29:42.091Z,49.73
2018-08-24T06:32:10.081Z,49.16
2018-08-24T06:34:38.120Z,49.29
2018-08-24T06:37:06.299Z,51.68
2018-08-24T06:39:34.217Z,51.39
2018-08-24T06:42:02.348Z,52.63
2018-08-24T06:44:30.289Z,53.18
2018-08-24T06:46:58.296Z,54.90
2018-08-24T06:49:26.289Z,55.75
2018-08-24T06:51:54.292Z,56.62
2018-08-24T06:54:22.292Z,56.55
2018-08-24T06:56:50.256Z,55.44
2018-08-24T06:59:18.285Z,56.96
2018-08-24T07:01:46.304Z,58.16
2018-08-24T07:04:14.307Z,58.24
2018-08-24T07:06:42.652Z,56.97
2018-08-24T07:09:10.669Z,58.25
2018-08-24T07:11:38.777Z,57.38
2018-08-24T07:14:06.780Z,57.94
2018-08-24T07:16:34.758Z,59.23
2018-08-24T07:19:02.752Z,58.68
2018-08-24T07:21:30.760Z,58.47
2018-08-24T07:23:58.769Z,58.40
2018-08-24T07:26:26.786Z,58.47
2018-08-24T07:28:54.760Z,57.94
2018-08-24T07:31:22.744Z,55.59
2018-08-24T07:33:50.759Z,54.23
2018-08-24T07:36:18.768Z,53.79
2018-08-24T07:38:46.779Z,52.89
2018-08-24T07:41:14.808Z,53.74
2018-08-24T07:43:42.857Z,54.29
2018-08-24T07:46:10.861Z,53.49
2018-08-24T07:48:38.853Z,53.73
2018-08-24T07:51:06.849Z,52.91
2018-08-24T07:53:34.869Z,52.87
2018-08-24T07:56:02.921Z,53.80
2018-08-24T07:58:30.913Z,54.75
2018-08-24T08:00:58.902Z,53.94
2018-08-24T08:03:26.917Z,54.97
2018-08-24T08:05:54.929Z,55.46
2018-08-24T08:08:22.989Z,54.59
2018-08-24T08:10:51.013Z,55.15
2018-08-24T08:13:19.025Z,54.40
2018-08-24T08:15:47.053Z,53.75
2018-08-24T08:18:15.174Z,54.20
2018-08-24T08:20:43.896Z,53.91
2018-08-24T08:23:11.921Z,53.57
2018-08-24T08:25:39.962Z,54.13
2018-08-24T08:28:07.976Z,51.77
2018-08-24T08:30:36.186Z,51.59
2018-08-24T08:33:04.245Z,51.64
2018-08-24T08:35:32.465Z,51.90
2018-08-24T08:38:00.504Z,52.75
2018-08-24T08:40:28.532Z,52.55
2018-08-24T08:42:56.594Z,52.39
2018-08-24T08:45:24.702Z,52.35
2018-08-24T08:47:52.768Z,52.75
2018-08-24T08:50:20.781Z,52.08
2018-08-24T08:52:48.829Z,51.52
2018-08-24T08:55:16.869Z,51.52
2018-08-24T08:57:45.044Z,53.30
2018-08-24T09:00:13.045Z,51.92
2018-08-24T09:02:41.044Z,53.15
2018-08-24T09:05:09.061Z,52.99
2018-08-24T09:07:37.052Z,54.05
2018-08-24T09:10:05.070Z,55.38
2018-08-24T09:12:33.055Z,56.22
2018-08-24T09:15:01.109Z,59.54
2018-08-24T09:17:34.601Z,60.11
2018-08-24T09:20:07.933Z,60.93
2018-08-24T09:22:41.676Z,60.80
2018-08-24T09:25:15.033Z,61.21
2018-08-24T09:27:52.220Z,61.46
2018-08-24T09:30:21.088Z,63.27
2018-08-24T09:32:49.161Z,63.45
2018-08-24T09:35:17.442Z,63.36
2018-08-24T09:37:45.516Z,64.04
2018-08-24T09:40:13.569Z,64.49
2018-08-24T09:42:41.597Z,64.40
2018-08-24T09:45:09.611Z,64.10
2018-08-24T09:47:43.037Z,64.21
2018-08-24T09:50:16.397Z,64.11
2018-08-24T09:52:48.820Z,65.65
2018-08-24T09:55:17.068Z,66.00
2018-08-24T09:57:45.144Z,68.16
2018-08-24T10:00:13.161Z,67.78
2018-08-24T10:02:44.137Z,67.62
2018-08-24T10:05:17.697Z,68.28
2018-08-24T10:07:49.805Z,68.22
2018-08-24T10:10:17.858Z,69.34
2018-08-24T10:12:45.849Z,70.01
2018-08-24T10:15:13.878Z,71.27
2018-08-24T10:17:41.953Z,70.69
2018-08-24T10:20:10.012Z,70.89
2018-08-24T10:22:38.024Z,69.77
2018-08-24T10:25:06.115Z,70.34
2018-08-24T10:27:34.242Z,70.91
2018-08-24T10:30:02.252Z,68.61
2018-08-24T10:32:30.254Z,69.02
2018-08-24T10:34:58.244Z,68.55
2018-08-24T10:37:26.329Z,68.24
2018-08-24T10:39:54.358Z,67.96
2018-08-24T10:42:22.388Z,66.78
2018-08-24T10:44:50.423Z,67.05
2018-08-24T10:47:18.552Z,66.20
2018-08-24T10:49:46.485Z,64.44
2018-08-24T10:52:14.628Z,64.11
2018-08-24T10:54:42.959Z,63.21
2018-08-24T10:57:11.072Z,62.00
2018-08-24T10:59:39.068Z,62.06
2018-08-24T11:02:07.476Z,61.19
2018-08-24T11:04:35.352Z,60.39
2018-08-24T11:07:03.638Z,58.84
2018-08-24T11:09:31.658Z,57.92
2018-08-24T11:11:59.656Z,58.09
2018-08-24T11:14:27.662Z,56.15
2018-08-24T11:16:55.745Z,55.96
2018-08-24T11:19:23.713Z,52.17
2018-08-24T11:21:51.740Z,49.75
2018-08-24T11:24:19.848Z,49.25
2018-08-24T11:26:47.898Z,48.04
2018-08-24T11:29:15.898Z,48.01
2018-08-24T11:31:44.877Z,47.57
2018-08-24T11:34:13.324Z,47.01
2018-08-24T11:36:41.593Z,45.73
2018-08-24T11:39:10.018Z,43.04
2018-08-24T11:41:38.508Z,44.11
2018-08-24T11:44:06.656Z,43.43
2018-08-24T11:46:35.201Z,38.93
2018-08-24T11:49:03.232Z,38.86
2018-08-24T11:51:35.449Z,41.09
2018-08-24T11:54:03.467Z,40.26
2018-08-24T11:56:31.461Z,40.05
2018-08-24T11:58:59.496Z,38.80
2018-08-24T12:01:27.554Z,38.71
2018-08-24T12:03:55.797Z,40.07
2018-08-24T12:06:23.977Z,41.58
2018-08-24T12:08:52.018Z,41.85
2018-08-24T12:11:20.049Z,41.43
2018-08-24T12:13:48.106Z,41.50
2018-08-24T12:16:16.426Z,40.17
2018-08-24T12:18:46.468Z,39.75
2018-08-24T12:21:14.518Z,38.29
2018-08-24T12:23:42.766Z,39.36
2018-08-24T12:26:11.282Z,37.66
2018-08-24T12:28:39.447Z,36.42
2018-08-24T12:31:07.756Z,37.80
2018-08-24T12:33:35.765Z,33.96
2018-08-24T12:36:04.821Z,33.97
2018-08-24T12:38:32.833Z,34.63
2018-08-24T12:41:00.985Z,33.31
2018-08-24T12:43:29.017Z,35.45
2018-08-24T12:45:56.993Z,32.70
2018-08-24T12:48:25.025Z,32.42
2018-08-24T12:50:53.032Z,33.37
2018-08-24T12:53:21.045Z,34.06
2018-08-24T12:55:49.057Z,33.03
2018-08-24T12:58:17.091Z,33.32
2018-08-24T13:00:45.106Z,32.73
2018-08-24T13:03:13.249Z,32.41
2018-08-24T13:05:41.497Z,33.22
2018-08-24T13:08:09.753Z,32.85
2018-08-24T13:10:38.017Z,33.16
2018-08-24T13:13:06.116Z,32.06
2018-08-24T13:15:34.179Z,33.26
2018-08-24T13:18:02.300Z,33.03
2018-08-24T13:20:30.284Z,33.74
2018-08-24T13:22:58.389Z,33.76
2018-08-24T13:25:26.416Z,34.61
2018-08-24T13:27:54.425Z,33.89
2018-08-24T13:30:22.426Z,34.27
2018-08-24T13:32:50.484Z,35.18
2018-08-24T13:35:25.190Z,35.71
2018-08-24T13:37:53.624Z,36.21
2018-08-24T13:40:21.988Z,35.67
2018-08-24T13:42:50.025Z,35.88
2018-08-24T13:45:18.029Z,35.58
2018-08-24T13:47:47.064Z,36.61
2018-08-24T13:50:15.071Z,36.67
2018-08-24T13:52:43.133Z,37.70
2018-08-24T13:55:11.154Z,37.69
2018-08-24T13:57:39.146Z,37.17
2018-08-24T14:00:07.553Z,36.97
2018-08-24T14:02:35.654Z,36.66
2018-08-24T14:05:03.716Z,35.66
2018-08-24T14:07:31.788Z,36.50
2018-08-24T14:09:59.797Z,34.85
2018-08-24T14:12:27.804Z,35.57
2018-08-24T14:14:55.834Z,34.92
2018-08-24T14:17:23.837Z,35.35
2018-08-24T14:19:51.860Z,35.44
2018-08-24T14:22:19.848Z,36.55
2018-08-24T14:24:47.853Z,36.13
2018-08-24T14:27:15.885Z,36.81
2018-08-24T14:29:44.232Z,36.42
2018-08-24T14:32:12.212Z,36.57
2018-08-24T14:34:40.628Z,37.27
2018-08-24T14:37:08.693Z,36.19
2018-08-24T14:39:36.763Z,36.83
2018-08-24T14:42:04.829Z,35.62
2018-08-24T14:44:32.972Z,35.93
2018-08-24T14:47:01.009Z,35.97
2018-08-24T14:49:29.038Z,35.98
2018-08-24T14:51:57.040Z,36.27
2018-08-24T14:54:25.084Z,35.66
2018-08-24T14:56:53.102Z,36.08
2018-08-24T14:59:21.125Z,36.51
2018-08-24T15:01:49.112Z,35.18
2018-08-24T15:04:17.148Z,34.95
2018-08-24T15:06:45.125Z,34.81
2018-08-24T15:09:13.166Z,35.93
2018-08-24T15:11:41.172Z,36.14
2018-08-24T15:14:09.738Z,35.84
2018-08-24T15:16:37.761Z,37.89
2018-08-24T15:19:05.937Z,37.52
2018-08-24T15:21:33.924Z,37.15
2018-08-24T15:24:01.953Z,36.59
2018-08-24T15:26:29.948Z,36.32
2018-08-24T15:28:58.013Z,36.75
2018-08-24T15:31:25.981Z,37.16
2018-08-24T15:33:54.005Z,37.35
2018-08-24T15:36:21.996Z,37.20
2018-08-24T15:38:50.029Z,37.89
2018-08-24T15:41:18.047Z,37.24
2018-08-24T15:43:46.075Z,36.01
2018-08-24T15:46:14.143Z,36.65
2018-08-24T15:48:42.081Z,37.71
2018-08-24T15:51:10.105Z,37.84
2018-08-24T15:53:38.102Z,36.62
2018-08-24T15:56:06.130Z,35.92
2018-08-24T15:58:34.221Z,35.63
2018-08-24T16:01:02.249Z,36.08
2018-08-24T16:03:30.281Z,36.39
2018-08-24T16:05:58.292Z,36.35
2018-08-24T16:08:26.343Z,36.77
2018-08-24T16:10:54.356Z,35.78
2018-08-24T16:13:22.364Z,36.58
2018-08-24T16:15:50.413Z,37.27
2018-08-24T16:18:23.005Z,38.00
2018-08-24T16:20:51.291Z,39.11
2018-08-24T16:23:19.325Z,38.50
2018-08-24T16:25:47.634Z,38.92
2018-08-24T16:28:15.640Z,38.07
2018-08-24T16:30:43.796Z,36.07
2018-08-24T16:33:11.827Z,36.15
2018-08-24T16:35:39.857Z,36.14
2018-08-24T16:38:07.850Z,36.20
2018-08-24T16:40:35.968Z,36.67
2018-08-24T16:43:03.980Z,36.18
2018-08-24T16:45:31.985Z,36.89
2018-08-24T16:48:00.017Z,36.74
2018-08-24T16:50:28.074Z,36.96
2018-08-24T16:52:56.058Z,36.92
2018-08-24T16:55:24.055Z,37.57
2018-08-24T16:57:52.804Z,37.92
2018-08-24T17:00:20.819Z,38.95
2018-08-24T17:02:48.800Z,38.93
2018-08-24T17:05:16.883Z,38.21
2018-08-24T17:07:45.952Z,39.18
2018-08-24T17:10:13.964Z,39.27
2018-08-24T17:12:42.024Z,39.46
2018-08-24T17:15:09.989Z,39.55
2018-08-24T17:17:37.981Z,40.15
2018-08-24T17:20:06.197Z,40.64
2018-08-24T17:22:34.225Z,40.08
2018-08-24T17:25:02.274Z,40.24
2018-08-24T17:27:30.269Z,40.16
2018-08-24T17:29:58.258Z,40.13
2018-08-24T17:32:26.292Z,40.29
2018-08-24T17:34:54.286Z,40.08
2018-08-24T17:37:22.397Z,40.04
2018-08-24T17:39:50.456Z,41.44
2018-08-24T17:42:18.472Z,40.22
2018-08-24T17:44:46.477Z,40.34
2018-08-24T17:47:14.492Z,40.63
2018-08-24T17:49:42.481Z,40.37
2018-08-24T17:52:10.808Z,40.37
2018-08-24T17:54:38.807Z,40.67
2018-08-24T17:57:06.828Z,40.91
2018-08-24T17:59:34.838Z,41.22
2018-08-24T18:02:03.081Z,41.06
2018-08-24T18:04:31.101Z,41.33
2018-08-24T18:06:59.129Z,41.16
2018-08-24T18:09:27.118Z,41.63
2018-08-24T18:11:55.138Z,41.08
2018-08-24T18:14:23.130Z,42.45
2018-08-24T18:16:51.645Z,42.83
2018-08-24T18:19:19.669Z,42.82
2018-08-24T18:21:47.801Z,43.03
2018-08-24T18:24:15.821Z,44.16
2018-08-24T18:26:43.820Z,44.34
2018-08-24T18:29:11.816Z,45.28
2018-08-24T18:31:39.918Z,45.22
2018-08-24T18:34:07.906Z,45.71
2018-08-24T18:36:36.074Z,46.11
2018-08-24T18:39:06.290Z,47.39
2018-08-24T18:41:34.388Z,47.22
2018-08-24T18:44:02.377Z,47.43
2018-08-24T18:46:30.375Z,47.02
2018-08-24T18:48:58.364Z,47.37
2018-08-24T18:51:26.361Z,47.19
2018-08-24T18:53:54.360Z,46.71
2018-08-24T18:56:22.391Z,46.26
2018-08-24T18:58:50.574Z,46.85
2018-08-24T19:01:18.821Z,45.99
2018-08-24T19:03:47.825Z,45.90
2018-08-24T19:06:15.838Z,46.48
2018-08-24T19:08:43.873Z,47.37
2018-08-24T19:11:17.366Z,46.52
2018-08-24T19:13:45.460Z,46.28
2018-08-24T19:16:13.431Z,47.05
2018-08-24T19:18:46.959Z,46.99
2018-08-24T19:21:20.356Z,46.64
2018-08-24T19:23:48.661Z,45.97
2018-08-24T19:26:16.713Z,47.04
2018-08-24T19:28:50.081Z,47.05
2018-08-24T19:31:18.124Z,46.72
2018-08-24T19:33:46.173Z,46.83
2018-08-24T19:36:14.164Z,46.91
2018-08-24T19:38:42.185Z,46.93
2018-08-24T19:42:18.277Z,46.36
2018-08-24T19:44:46.329Z,47.97
2018-08-24T19:47:19.761Z,47.68
2018-08-24T19:49:47.761Z,47.35
2018-08-24T19:52:15.784Z,47.49
2018-08-24T19:54:43.824Z,48.11
2018-08-24T19:57:17.341Z,48.43
2018-08-24T19:59:45.337Z,48.57
2018-08-24T20:02:13.391Z,48.17
2018-08-24T20:04:41.418Z,49.11
2018-08-24T20:07:14.980Z,48.40
2018-08-24T20:09:48.665Z,48.96
2018-08-24T20:12:16.681Z,48.36
2018-08-24T20:14:50.180Z,49.26
2018-08-24T20:17:23.736Z,49.28
2018-08-24T20:19:51.729Z,49.25
2018-08-24T20:22:19.746Z,49.46
2018-08-24T20:24:47.733Z,49.11
2018-08-24T20:27:15.754Z,49.38
2018-08-24T20:29:43.796Z,49.54
2018-08-24T20:32:11.781Z,50.01
2018-08-24T20:34:39.773Z,48.73
2018-08-24T20:37:07.781Z,49.56
2018-08-24T20:39:35.772Z,50.28
2018-08-24T20:42:03.796Z,49.22
2018-08-24T20:44:31.801Z,49.64
2018-08-24T20:46:59.793Z,50.09
2018-08-24T20:49:27.782Z,50.28
2018-08-24T20:51:55.781Z,50.01
2018-08-24T20:54:23.789Z,50.82
2018-08-24T20:56:51.837Z,50.31
2018-08-24T20:59:19.836Z,50.51
2018-08-24T21:01:47.876Z,50.48
2018-08-24T21:04:16.008Z,50.77
2018-08-24T21:06:43.974Z,50.22
2018-08-24T21:09:18.722Z,50.00
2018-08-24T21:11:46.741Z,50.88
2018-08-24T21:14:14.797Z,50.86
2018-08-24T21:16:42.874Z,50.45
2018-08-24T21:19:10.820Z,51.01
2018-08-24T21:21:38.828Z,51.94
2018-08-24T21:24:07.407Z,50.99
2018-08-24T21:26:35.566Z,51.76
2018-08-24T21:29:03.655Z,51.36
2018-08-24T21:31:31.592Z,52.08
2018-08-24T21:33:59.664Z,52.08
2018-08-24T21:36:27.686Z,51.57
2018-08-24T21:38:55.792Z,52.21
2018-08-24T21:41:23.824Z,50.99
2018-08-24T21:43:51.876Z,51.51
2018-08-24T21:46:19.921Z,51.38
2018-08-24T21:48:48.149Z,51.57
2018-08-24T21:51:17.190Z,50.68
2018-08-24T21:53:45.261Z,51.77
2018-08-24T21:56:13.357Z,51.08
2018-08-24T21:58:41.579Z,50.92
2018-08-24T22:01:09.565Z,51.56
2018-08-24T22:03:37.546Z,52.23
2018-08-24T22:06:05.616Z,51.77
2018-08-24T22:08:33.653Z,52.87
2018-08-24T22:11:01.719Z,52.76
2018-08-24T22:13:29.705Z,52.48
2018-08-24T22:15:57.857Z,52.39
2018-08-24T22:18:25.881Z,53.22
2018-08-24T22:20:53.994Z,53.01
2018-08-24T22:23:22.220Z,52.99
2018-08-24T22:25:50.277Z,53.24
2018-08-24T22:28:18.290Z,52.48
2018-08-24T22:30:46.267Z,53.15
2018-08-24T22:33:14.240Z,53.91
2018-08-24T22:35:42.281Z,53.38
2018-08-24T22:38:10.277Z,53.36
2018-08-24T22:40:38.390Z,53.63
2018-08-24T22:43:10.582Z,52.60
2018-08-24T22:45:38.652Z,53.46
2018-08-24T22:48:06.633Z,53.71
2018-08-24T22:50:34.693Z,54.55
2018-08-24T22:53:02.681Z,54.95
2018-08-24T22:55:30.694Z,55.82
2018-08-24T22:57:59.549Z,55.80
2018-08-24T23:00:27.546Z,55.68
2018-08-24T23:02:55.549Z,56.10
2018-08-24T23:05:23.662Z,55.63
2018-08-24T23:07:51.734Z,55.79
2018-08-24T23:10:19.779Z,56.71
2018-08-24T23:12:47.821Z,56.33
2018-08-24T23:15:15.832Z,57.41
2018-08-24T23:17:43.856Z,56.55
2018-08-24T23:20:11.857Z,56.67
2018-08-24T23:22:39.853Z,56.67
2018-08-24T23:25:07.968Z,57.58
2018-08-24T23:27:36.008Z,56.44
2018-08-24T23:30:04.455Z,57.16
2018-08-24T23:32:33.000Z,57.44
2018-08-24T23:35:00.984Z,57.09
2018-08-24T23:37:29.205Z,57.16
2018-08-24T23:39:57.188Z,57.81
2018-08-24T23:42:26.225Z,58.03
2018-08-24T23:44:54.301Z,57.93
2018-08-24T23:47:22.344Z,57.62
2018-08-24T23:49:50.332Z,57.84
2018-08-24T23:52:18.433Z,58.10
2018-08-24T23:54:46.525Z,57.65
2018-08-24T23:57:14.545Z,57.72
2018-08-24T23:59:42.568Z,57.25
